createdAt,value
2023-04-20T00:00:13.994Z,8.85
2023-04-20T00:02:58.995Z,8.86
2023-04-20T00:05:43.681Z,8.89
2023-04-20T00:08:28.844Z,8.75
2023-04-20T00:11:13.676Z,8.79
2023-04-20T00:13:58.822Z,8.83
2023-04-20T00:16:43.950Z,8.71
2023-04-20T00:19:28.922Z,8.59
2023-04-20T00:25:17.031Z,8.53
2023-04-20T00:28:01.950Z,8.51
2023-04-20T00:30:46.983Z,8.49
2023-04-20T00:33:31.780Z,8.55
2023-04-20T00:36:16.792Z,8.53
2023-04-20T00:39:01.716Z,8.43
2023-04-20T00:41:46.856Z,8.26
2023-04-20T00:44:31.888Z,8.35
2023-04-20T00:47:16.800Z,8.44
2023-04-20T00:50:01.604Z,8.48
2023-04-20T00:52:46.582Z,8.49
2023-04-20T00:55:31.528Z,8.39
2023-04-20T00:58:16.497Z,8.52
2023-04-20T01:01:01.661Z,8.50
2023-04-20T01:03:46.919Z,8.34
2023-04-20T01:06:32.218Z,8.30
2023-04-20T01:09:17.371Z,8.31
2023-04-20T01:12:02.247Z,8.32
2023-04-20T01:14:47.124Z,8.39
2023-04-20T01:17:32.117Z,8.37
2023-04-20T01:20:17.203Z,8.36
2023-04-20T01:23:02.265Z,8.31
2023-04-20T01:25:47.289Z,8.29
2023-04-20T01:28:32.267Z,8.22
2023-04-20T01:31:17.367Z,8.16
2023-04-20T01:34:02.142Z,8.16
2023-04-20T01:36:47.111Z,8.20
2023-04-20T01:39:32.055Z,8.22
2023-04-20T01:42:16.890Z,8.18
2023-04-20T01:45:02.078Z,8.01
2023-04-20T01:47:47.111Z,7.89
2023-04-20T01:50:32.191Z,7.90
2023-04-20T01:53:17.110Z,7.87
2023-04-20T01:56:02.040Z,7.74
2023-04-20T01:58:47.047Z,7.63
2023-04-20T02:01:32.012Z,7.58
2023-04-20T02:04:17.195Z,7.55
2023-04-20T02:07:02.130Z,7.52
2023-04-20T02:09:47.287Z,7.54
2023-04-20T02:12:32.191Z,7.58
2023-04-20T02:15:17.231Z,7.47
2023-04-20T02:18:02.295Z,7.53
2023-04-20T02:20:47.267Z,7.51
2023-04-20T02:23:32.254Z,7.38
2023-04-20T02:26:17.195Z,7.27
2023-04-20T02:29:02.230Z,7.30
2023-04-20T02:31:47.264Z,7.37
2023-04-20T02:34:32.446Z,7.26
2023-04-20T02:37:17.397Z,7.16
2023-04-20T02:40:02.455Z,7.12
2023-04-20T02:42:47.417Z,7.05
2023-04-20T02:45:32.368Z,7.08
2023-04-20T02:48:17.422Z,7.07
2023-04-20T02:51:02.369Z,7.07
2023-04-20T02:53:47.358Z,7.06
2023-04-20T02:56:32.327Z,6.92
2023-04-20T02:59:17.662Z,6.89
2023-04-20T03:02:02.837Z,6.88
2023-04-20T03:04:47.933Z,6.91
2023-04-20T03:07:32.774Z,6.90
2023-04-20T03:10:17.859Z,6.91
2023-04-20T03:13:02.845Z,6.94
2023-04-20T03:15:47.718Z,6.97
2023-04-20T03:18:32.785Z,6.98
2023-04-20T03:21:17.648Z,6.92
2023-04-20T03:24:02.789Z,6.82
2023-04-20T03:26:47.635Z,6.80
2023-04-20T03:29:32.644Z,6.78
2023-04-20T03:32:17.661Z,6.76
2023-04-20T03:35:02.616Z,6.63
2023-04-20T03:37:47.695Z,6.67
2023-04-20T03:40:32.643Z,6.80
2023-04-20T03:43:17.816Z,6.79
2023-04-20T03:46:02.768Z,6.84
2023-04-20T03:48:47.654Z,6.93
2023-04-20T03:51:32.721Z,6.90
2023-04-20T03:54:17.777Z,6.90
2023-04-20T03:57:02.916Z,6.83
2023-04-20T03:59:47.900Z,6.86
2023-04-20T04:02:33.149Z,6.86
2023-04-20T04:05:18.417Z,6.91
2023-04-20T04:08:03.414Z,6.97
2023-04-20T04:10:48.314Z,6.88
2023-04-20T04:13:34.642Z,6.81
2023-04-20T04:16:19.813Z,6.77
2023-04-20T04:19:04.611Z,6.88
2023-04-20T04:21:49.743Z,6.91
2023-04-20T04:24:34.704Z,6.92
2023-04-20T04:27:19.779Z,6.91
2023-04-20T04:30:04.633Z,6.90
2023-04-20T04:32:49.611Z,6.82
2023-04-20T04:35:34.615Z,6.90
2023-04-20T04:38:19.590Z,7.09
2023-04-20T04:41:04.637Z,7.14
2023-04-20T04:43:49.574Z,7.09
2023-04-20T04:46:34.869Z,7.18
2023-04-20T04:49:19.871Z,7.20
2023-04-20T04:52:04.740Z,7.16
2023-04-20T04:54:49.704Z,7.08
2023-04-20T04:57:34.812Z,7.05
2023-04-20T05:00:19.792Z,7.04
2023-04-20T05:03:04.851Z,7.01
2023-04-20T05:05:49.897Z,7.07
2023-04-20T05:08:34.776Z,7.07
2023-04-20T05:11:19.753Z,7.06
2023-04-20T05:14:04.690Z,7.14
2023-04-20T05:16:49.788Z,7.21
2023-04-20T05:19:34.707Z,7.33
2023-04-20T05:22:19.807Z,7.42
2023-04-20T05:25:04.771Z,7.44
2023-04-20T05:27:49.691Z,7.46
2023-04-20T05:30:34.803Z,7.46
2023-04-20T05:33:19.785Z,7.51
2023-04-20T05:36:04.974Z,7.59
2023-04-20T05:38:50.049Z,7.72
2023-04-20T05:41:34.967Z,7.77
2023-04-20T05:44:20.110Z,7.77
2023-04-20T05:47:04.952Z,7.84
2023-04-20T05:49:50.078Z,7.82
2023-04-20T05:52:35.066Z,7.85
2023-04-20T05:55:22.199Z,7.98
2023-04-20T05:58:07.653Z,8.06
2023-04-20T06:00:52.724Z,8.07
2023-04-20T06:03:37.838Z,8.13
2023-04-20T06:06:22.688Z,8.27
2023-04-20T06:09:07.854Z,9.02
2023-04-20T06:11:52.641Z,9.48
2023-04-20T06:14:37.706Z,9.96
2023-04-20T06:17:22.879Z,9.97
2023-04-20T06:20:07.946Z,9.51
2023-04-20T06:22:52.950Z,9.07
2023-04-20T06:25:37.908Z,8.80
2023-04-20T06:28:22.925Z,8.60
2023-04-20T06:31:07.926Z,8.10
2023-04-20T06:33:53.057Z,7.84
2023-04-20T06:36:37.984Z,7.69
2023-04-20T06:39:23.059Z,7.81
2023-04-20T06:42:08.010Z,7.95
2023-04-20T06:44:52.937Z,8.12
2023-04-20T06:47:37.897Z,8.22
2023-04-20T06:50:22.661Z,8.31
2023-04-20T06:53:07.687Z,8.32
2023-04-20T06:55:52.487Z,8.06
2023-04-20T06:58:37.567Z,7.88
2023-04-20T07:01:22.577Z,7.90
2023-04-20T07:04:07.811Z,8.16
2023-04-20T07:06:54.363Z,8.38
2023-04-20T07:09:39.554Z,8.50
2023-04-20T07:12:24.548Z,8.54
2023-04-20T07:15:09.482Z,8.52
2023-04-20T07:17:54.653Z,8.61
2023-04-20T07:20:39.486Z,8.64
2023-04-20T07:23:24.598Z,8.68
2023-04-20T07:26:09.377Z,8.71
2023-04-20T07:28:54.323Z,8.85
2023-04-20T07:31:39.307Z,8.92
2023-04-20T07:34:24.078Z,8.95
2023-04-20T07:37:09.288Z,9.07
2023-04-20T07:39:54.278Z,8.89
2023-04-20T07:42:39.426Z,8.69
2023-04-20T07:45:24.442Z,8.75
2023-04-20T07:48:09.297Z,8.90
2023-04-20T07:50:54.194Z,9.31
2023-04-20T07:53:39.080Z,9.53
2023-04-20T07:56:24.114Z,9.53
2023-04-20T07:59:09.075Z,9.54
2023-04-20T08:01:56.286Z,9.61
2023-04-20T08:04:41.341Z,9.68
2023-04-20T08:07:26.559Z,9.73
2023-04-20T08:10:11.529Z,9.43
2023-04-20T08:12:56.500Z,9.34
2023-04-20T08:15:41.774Z,9.58
2023-04-20T08:18:26.551Z,10.00
2023-04-20T08:21:11.767Z,10.55
2023-04-20T08:23:56.751Z,10.58
2023-04-20T08:26:41.695Z,10.86
2023-04-20T08:29:26.641Z,11.18
2023-04-20T08:32:11.583Z,11.42
2023-04-20T08:34:56.797Z,11.33
2023-04-20T08:37:41.795Z,11.73
2023-04-20T08:40:26.849Z,12.01
2023-04-20T08:43:11.749Z,12.09
2023-04-20T08:45:56.808Z,12.17
2023-04-20T08:48:41.781Z,12.33
2023-04-20T08:51:26.817Z,12.40
2023-04-20T08:54:12.010Z,12.42
2023-04-20T08:56:57.035Z,12.07
2023-04-20T08:59:42.190Z,11.43
2023-04-20T09:02:27.358Z,11.10
2023-04-20T09:05:12.382Z,10.64
2023-04-20T09:07:57.152Z,10.69
2023-04-20T09:10:42.275Z,10.24
2023-04-20T09:13:27.359Z,9.99
2023-04-20T09:16:12.569Z,9.50
2023-04-20T09:18:57.591Z,9.43
2023-04-20T09:21:42.522Z,9.25
2023-04-20T09:24:27.620Z,8.64
2023-04-20T09:27:12.579Z,8.81
2023-04-20T09:29:57.787Z,9.15
2023-04-20T09:32:42.682Z,9.38
2023-04-20T09:35:27.579Z,9.27
2023-04-20T09:38:12.618Z,9.49
2023-04-20T09:40:57.463Z,9.52
2023-04-20T09:43:42.495Z,9.40
2023-04-20T09:46:27.493Z,9.00
2023-04-20T09:49:12.485Z,9.04
2023-04-20T09:51:57.398Z,9.22
2023-04-20T09:54:42.452Z,8.98
2023-04-20T09:57:27.591Z,8.90
2023-04-20T10:00:12.667Z,8.83
2023-04-20T10:02:57.862Z,8.76
2023-04-20T10:05:42.685Z,8.40
2023-04-20T10:08:27.900Z,8.47
2023-04-20T10:11:12.881Z,8.55
2023-04-20T10:13:57.948Z,8.51
2023-04-20T10:16:42.948Z,8.63
2023-04-20T10:19:27.766Z,8.59
2023-04-20T10:22:12.855Z,8.48
2023-04-20T10:24:57.727Z,8.40
2023-04-20T10:27:42.862Z,8.15
2023-04-20T10:30:27.765Z,7.94
2023-04-20T10:33:13.194Z,7.85
2023-04-20T10:35:58.327Z,7.42
2023-04-20T10:38:43.369Z,7.31
2023-04-20T10:41:28.469Z,7.32
2023-04-20T10:44:13.447Z,7.30
2023-04-20T10:46:58.471Z,7.22
2023-04-20T10:49:43.321Z,7.13
2023-04-20T10:52:28.312Z,7.13
2023-04-20T10:55:13.089Z,7.21
2023-04-20T10:57:58.237Z,7.38
2023-04-20T11:00:43.078Z,7.37
2023-04-20T11:03:28.227Z,7.48
2023-04-20T11:06:13.223Z,7.52
2023-04-20T11:08:58.072Z,7.68
2023-04-20T11:11:43.289Z,7.69
2023-04-20T11:14:28.196Z,7.79
2023-04-20T11:17:13.223Z,7.89
2023-04-20T11:19:58.699Z,7.76
2023-04-20T11:22:43.842Z,7.72
2023-04-20T11:25:28.782Z,7.69
2023-04-20T11:28:13.793Z,7.76
2023-04-20T11:30:58.840Z,7.82
2023-04-20T11:33:43.723Z,7.89
2023-04-20T11:36:28.716Z,7.90
2023-04-20T11:39:13.646Z,8.05
2023-04-20T11:41:58.676Z,8.27
2023-04-20T11:44:43.651Z,8.57
2023-04-20T11:47:28.677Z,8.67
2023-04-20T11:50:13.647Z,8.90
2023-04-20T11:52:58.537Z,9.02
2023-04-20T11:55:43.757Z,8.69
2023-04-20T11:58:28.573Z,8.43
2023-04-20T12:01:13.647Z,8.17
2023-04-20T12:03:58.860Z,8.08
2023-04-20T12:06:44.148Z,7.85
2023-04-20T12:09:29.123Z,7.80
2023-04-20T12:12:14.064Z,7.61
2023-04-20T12:14:59.185Z,7.44
2023-04-20T12:17:44.328Z,7.21
2023-04-20T12:20:29.285Z,7.37
2023-04-20T12:23:14.234Z,7.54
2023-04-20T12:25:59.229Z,7.64
2023-04-20T12:28:44.249Z,7.46
2023-04-20T12:31:29.385Z,7.39
2023-04-20T12:34:14.472Z,7.27
2023-04-20T12:36:59.346Z,7.31
2023-04-20T12:39:44.421Z,7.40
2023-04-20T12:42:29.398Z,7.38
2023-04-20T12:45:14.575Z,7.53
2023-04-20T12:48:00.601Z,7.73
2023-04-20T12:50:45.825Z,7.82
2023-04-20T12:53:30.716Z,7.87
2023-04-20T12:56:15.545Z,8.07
2023-04-20T12:59:00.725Z,8.23
2023-04-20T13:01:45.636Z,8.38
2023-04-20T13:04:30.783Z,8.55
2023-04-20T13:07:15.633Z,8.61
2023-04-20T13:10:00.826Z,8.72
2023-04-20T13:12:46.679Z,8.74
2023-04-20T13:15:38.959Z,8.73
2023-04-20T13:18:24.406Z,8.78
2023-04-20T13:21:09.549Z,8.86
2023-04-20T13:23:56.216Z,8.84
2023-04-20T13:26:41.525Z,8.82
2023-04-20T13:29:26.570Z,8.81
2023-04-20T13:32:11.515Z,8.66
2023-04-20T13:34:56.619Z,8.50
2023-04-20T13:37:41.663Z,8.35
2023-04-20T13:40:26.678Z,8.30
2023-04-20T13:43:11.628Z,8.21
2023-04-20T13:45:56.657Z,8.07
2023-04-20T13:48:41.586Z,7.88
2023-04-20T13:51:26.689Z,7.79
2023-04-20T13:54:11.585Z,7.75
2023-04-20T13:56:56.668Z,7.73
2023-04-20T13:59:41.668Z,7.80
2023-04-20T14:02:26.742Z,7.98
2023-04-20T14:05:11.759Z,8.11
2023-04-20T14:07:56.679Z,8.16
2023-04-20T14:10:41.683Z,8.29
2023-04-20T14:13:26.708Z,8.32
2023-04-20T14:16:11.875Z,8.37
2023-04-20T14:18:56.878Z,8.37
2023-04-20T14:21:41.876Z,8.34
2023-04-20T14:24:26.930Z,8.32
2023-04-20T14:27:11.933Z,8.24
2023-04-20T14:29:56.896Z,8.35
2023-04-20T14:32:41.937Z,8.42
2023-04-20T14:35:26.900Z,8.51
2023-04-20T14:38:11.956Z,8.50
2023-04-20T14:40:56.999Z,8.59
2023-04-20T14:43:42.202Z,8.64
2023-04-20T14:46:27.359Z,8.64
2023-04-20T14:49:12.338Z,8.62
2023-04-20T14:51:57.236Z,8.68
2023-04-20T14:54:42.345Z,8.70
2023-04-20T14:57:27.390Z,8.66
2023-04-20T15:00:12.396Z,8.63
2023-04-20T15:02:57.858Z,8.58
2023-04-20T15:05:43.151Z,8.64
2023-04-20T15:08:28.141Z,8.61
2023-04-20T15:11:13.051Z,8.69
2023-04-20T15:13:58.121Z,8.83
2023-04-20T15:16:43.085Z,9.01
2023-04-20T15:19:27.944Z,9.22
2023-04-20T15:22:13.074Z,9.55
2023-04-20T15:24:58.012Z,9.81
2023-04-20T15:27:43.068Z,10.10
2023-04-20T15:30:27.851Z,10.28
2023-04-20T15:33:12.932Z,10.43
2023-04-20T15:35:57.646Z,10.38
2023-04-20T15:38:42.595Z,10.48
2023-04-20T15:41:27.434Z,10.37
2023-04-20T15:44:12.542Z,10.01
2023-04-20T15:46:57.674Z,9.67
2023-04-20T15:49:42.688Z,9.60
2023-04-20T15:52:27.751Z,9.75
2023-04-20T15:55:12.628Z,9.68
2023-04-20T15:57:57.629Z,9.63
2023-04-20T16:00:42.578Z,9.66
2023-04-20T16:03:27.787Z,9.67
2023-04-20T16:06:12.525Z,9.54
2023-04-20T16:08:57.362Z,9.51
2023-04-20T16:11:42.549Z,9.39
2023-04-20T16:14:27.364Z,9.23
2023-04-20T16:17:12.497Z,9.11
2023-04-20T16:19:57.581Z,9.09
2023-04-20T16:22:42.695Z,9.16
2023-04-20T16:25:27.602Z,9.18
2023-04-20T16:28:12.641Z,9.20
2023-04-20T16:30:57.636Z,9.17
2023-04-20T16:33:43.045Z,9.15
2023-04-20T16:36:28.079Z,9.10
2023-04-20T16:39:13.134Z,9.02
2023-04-20T16:41:58.234Z,9.03
2023-04-20T16:44:43.393Z,9.04
2023-04-20T16:47:28.661Z,8.99
2023-04-20T16:50:13.620Z,8.88
2023-04-20T16:52:58.536Z,8.83
2023-04-20T16:55:43.495Z,8.64
2023-04-20T16:58:28.507Z,8.46
2023-04-20T17:01:13.567Z,8.16
2023-04-20T17:03:58.572Z,8.13
2023-04-20T17:06:43.478Z,8.02
2023-04-20T17:09:28.214Z,7.85
2023-04-20T17:12:13.413Z,7.65
2023-04-20T17:14:58.507Z,7.53
2023-04-20T17:17:43.458Z,7.39
2023-04-20T17:20:28.534Z,7.24
2023-04-20T17:23:13.469Z,7.23
2023-04-20T17:25:58.421Z,7.17
2023-04-20T17:28:43.452Z,7.18
2023-04-20T17:31:28.584Z,7.14
2023-04-20T17:34:13.584Z,7.14
2023-04-20T17:36:58.790Z,7.15
2023-04-20T17:39:43.846Z,7.21
2023-04-20T17:42:28.758Z,7.22
2023-04-20T17:45:13.926Z,7.24
2023-04-20T17:47:58.906Z,7.22
2023-04-20T17:50:43.787Z,7.19
2023-04-20T17:53:28.852Z,7.22
2023-04-20T17:56:13.843Z,7.22
2023-04-20T17:58:58.829Z,7.16
2023-04-20T18:01:43.782Z,7.08
2023-04-20T18:04:29.059Z,7.04
2023-04-20T18:07:14.309Z,7.02
2023-04-20T18:09:59.387Z,7.03
2023-04-20T18:12:44.296Z,7.13
2023-04-20T18:15:29.466Z,7.19
2023-04-20T18:18:14.224Z,7.16
2023-04-20T18:20:59.331Z,7.17
2023-04-20T18:23:44.404Z,7.20
2023-04-20T18:26:29.267Z,7.26
2023-04-20T18:29:14.441Z,7.36
2023-04-20T18:31:59.516Z,7.41
2023-04-20T18:34:44.557Z,7.46
2023-04-20T18:37:29.520Z,7.45
2023-04-20T18:40:16.215Z,7.37
2023-04-20T18:43:01.784Z,7.32
2023-04-20T18:45:46.721Z,7.25
2023-04-20T18:48:31.825Z,7.29
2023-04-20T18:51:16.661Z,7.20
2023-04-20T18:54:01.680Z,7.15
2023-04-20T18:56:46.583Z,7.13
2023-04-20T18:59:31.696Z,7.17
2023-04-20T19:02:16.849Z,7.18
2023-04-20T19:05:01.582Z,7.22
2023-04-20T19:07:46.741Z,7.18
2023-04-20T19:10:31.575Z,7.09
2023-04-20T19:13:16.768Z,7.02
2023-04-20T19:16:01.714Z,6.97
2023-04-20T19:18:46.658Z,6.97
2023-04-20T19:21:31.806Z,6.96
2023-04-20T19:24:17.049Z,6.97
2023-04-20T19:27:02.431Z,6.95
2023-04-20T19:29:47.261Z,6.98
2023-04-20T19:32:32.458Z,7.03
2023-04-20T19:35:17.408Z,7.14
2023-04-20T19:38:02.515Z,7.18
2023-04-20T19:40:47.435Z,7.24
2023-04-20T19:43:32.552Z,7.26
2023-04-20T19:46:17.611Z,7.26
2023-04-20T19:49:02.543Z,7.22
2023-04-20T19:51:47.716Z,7.18
2023-04-20T19:54:32.522Z,7.12
2023-04-20T19:57:17.528Z,7.05
2023-04-20T20:00:02.476Z,6.89
2023-04-20T20:02:47.707Z,6.85
2023-04-20T20:05:32.579Z,6.81
2023-04-20T20:08:17.605Z,6.68
2023-04-20T20:11:02.630Z,6.63
2023-04-20T20:13:47.641Z,6.57
2023-04-20T20:16:32.925Z,6.67
2023-04-20T20:19:18.045Z,6.77
2023-04-20T20:22:03.334Z,6.88
2023-04-20T20:24:48.258Z,6.98
2023-04-20T20:27:33.342Z,7.03
2023-04-20T20:30:18.447Z,7.09
2023-04-20T20:33:03.418Z,7.07
2023-04-20T20:35:48.497Z,7.13
2023-04-20T20:38:33.392Z,7.10
2023-04-20T20:41:18.402Z,7.02
2023-04-20T20:44:03.442Z,7.04
2023-04-20T20:46:48.412Z,7.03
2023-04-20T20:49:33.352Z,7.03
2023-04-20T20:52:18.232Z,6.95
2023-04-20T20:55:03.388Z,6.96
2023-04-20T20:57:48.323Z,6.86
2023-04-20T21:00:33.482Z,6.89
2023-04-20T21:03:18.446Z,6.91
2023-04-20T21:06:03.471Z,6.92
2023-04-20T21:08:48.377Z,6.90
2023-04-20T21:11:33.479Z,6.92
2023-04-20T21:14:18.685Z,6.94
2023-04-20T21:17:03.700Z,6.88
2023-04-20T21:19:48.749Z,6.91
2023-04-20T21:22:33.535Z,6.94
2023-04-20T21:25:18.701Z,6.98
2023-04-20T21:28:03.580Z,7.06
2023-04-20T21:30:48.588Z,7.13
2023-04-20T21:33:33.615Z,7.09
2023-04-20T21:36:18.491Z,7.07
2023-04-20T21:39:03.687Z,7.08
2023-04-20T21:41:48.654Z,7.06
2023-04-20T21:44:33.754Z,7.01
2023-04-20T21:47:18.758Z,7.04
2023-04-20T21:50:03.672Z,7.10
2023-04-20T21:52:48.672Z,7.06
2023-04-20T21:55:33.750Z,7.06
2023-04-20T21:58:18.800Z,7.06
2023-04-20T22:01:03.788Z,7.00
2023-04-20T22:03:49.057Z,6.72
2023-04-20T22:06:33.806Z,6.59
2023-04-20T22:09:19.076Z,6.50
2023-04-20T22:12:03.810Z,6.48
2023-04-20T22:14:48.832Z,6.44
2023-04-20T22:17:33.845Z,6.45
2023-04-20T22:20:18.916Z,6.46
2023-04-20T22:23:04.020Z,6.49
2023-04-20T22:25:48.882Z,6.52
2023-04-20T22:28:34.068Z,6.55
2023-04-20T22:31:18.999Z,6.62
2023-04-20T22:34:04.078Z,6.71
2023-04-20T22:36:49.094Z,6.75
2023-04-20T22:39:34.216Z,6.76
2023-04-20T22:42:19.186Z,6.88
2023-04-20T22:45:04.138Z,6.86
2023-04-20T22:47:49.397Z,6.88
2023-04-20T22:50:34.190Z,6.87
2023-04-20T22:53:19.243Z,6.94
2023-04-20T22:56:04.106Z,6.90
2023-04-20T22:58:49.146Z,6.85
2023-04-20T23:01:34.041Z,6.83
2023-04-20T23:04:19.162Z,6.79
2023-04-20T23:07:04.191Z,6.77
2023-04-20T23:09:49.237Z,6.77
2023-04-20T23:12:34.418Z,6.70
2023-04-20T23:15:19.306Z,6.67
2023-04-20T23:18:04.393Z,6.66
2023-04-20T23:20:49.232Z,6.60
2023-04-20T23:23:34.293Z,6.57
2023-04-20T23:26:19.366Z,6.57
2023-04-20T23:29:04.359Z,6.53
2023-04-20T23:31:49.535Z,6.54
2023-04-20T23:34:34.376Z,6.44
2023-04-20T23:37:19.385Z,6.39
2023-04-20T23:40:04.372Z,6.47
2023-04-20T23:42:49.393Z,6.57
2023-04-20T23:45:34.377Z,6.67
2023-04-20T23:48:19.304Z,6.70
2023-04-20T23:51:04.328Z,6.72
2023-04-20T23:53:49.289Z,6.77
2023-04-20T23:56:34.328Z,6.74
2023-04-20T23:59:19.423Z,6.76
